Time;durP1;ratioP1;P1;durP2;ratioP2;P2;SDS_P1;SDS_P2;PMS_P1;PMS_P2;Temp;Humidity;BMP_temperature;BMP_pressure;BME280_temperature;BME280_humidity;BME280_pressure;Samples;Min_cycle;Max_cycle;Signal;HPM_P1;HPM_P2
2022/07/15 00:02:22;;;;;;;23.92;5.55;;;;;;;;;;5002651;28;20121;-72
2022/07/15 00:04:47;;;;;;;21.05;5.50;;;;;;;;;;4999113;28;20022;-72
2022/07/15 00:07:13;;;;;;;16.73;5.60;;;;;;;;;;5001058;28;20173;-72
2022/07/15 00:12:22;;;;;;;16.25;5.72;;;;;;;;;;5003930;28;20547;-72
2022/07/15 00:14:47;;;;;;;20.90;5.43;;;;;;;;;;4996018;28;20124;-72
2022/07/15 00:17:12;;;;;;;25.50;6.03;;;;;;;;;;4999338;28;20026;-73
2022/07/15 00:19:37;;;;;;;30.05;5.43;;;;;;;;;;5000195;28;20260;-72
2022/07/15 00:22:03;;;;;;;15.00;5.37;;;;;;;;;;4997444;28;20030;-72
2022/07/15 00:24:29;;;;;;;16.25;4.85;;;;;;;;;;5003419;28;21170;-75
2022/07/15 00:26:54;;;;;;;14.43;6.03;;;;;;;;;;4998374;28;20025;-73
2022/07/15 00:29:19;;;;;;;20.65;5.97;;;;;;;;;;5005202;28;20105;-73
2022/07/15 00:31:44;;;;;;;14.88;5.30;;;;;;;;;;4999006;28;20064;-73
2022/07/15 00:34:10;;;;;;;16.97;5.17;;;;;;;;;;4998387;28;20026;-73
2022/07/15 00:36:35;;;;;;;18.63;5.50;;;;;;;;;;5004230;28;20267;-73
2022/07/15 00:39:00;;;;;;;15.18;5.20;;;;;;;;;;4998635;28;20895;-73
2022/07/15 00:41:25;;;;;;;10.87;5.33;;;;;;;;;;5000382;28;20033;-73
2022/07/15 00:43:50;;;;;;;16.13;5.53;;;;;;;;;;5001954;28;20040;-73
2022/07/15 00:46:17;;;;;;;17.73;5.40;;;;;;;;;;5004122;28;20452;-73
2022/07/15 00:48:42;;;;;;;17.50;5.32;;;;;;;;;;5008208;28;20080;-73
2022/07/15 00:51:08;;;;;;;14.50;4.65;;;;;;;;;;5006864;28;20033;-73
2022/07/15 00:53:33;;;;;;;14.75;5.30;;;;;;;;;;4997418;28;20467;-73
2022/07/15 00:55:59;;;;;;;16.05;5.45;;;;;;;;;;4996029;28;20120;-73
2022/07/15 00:58:25;;;;;;;18.20;6.00;;;;;;;;;;4998693;28;20079;-73
2022/07/15 01:00:51;;;;;;;21.33;5.15;;;;;;;;;;4995766;28;20037;-73
2022/07/15 01:03:17;;;;;;;22.25;5.85;;;;;;;;;;4996435;28;20021;-73
2022/07/15 01:05:42;;;;;;;18.10;5.18;;;;;;;;;;4997350;28;20030;-73
2022/07/15 01:08:08;;;;;;;15.85;5.93;;;;;;;;;;4999897;28;20451;-73
2022/07/15 01:10:34;;;;;;;24.20;5.38;;;;;;;;;;5003446;28;20038;-73
2022/07/15 01:13:02;;;;;;;18.52;4.40;;;;;;;;;;5002546;28;20014;-73
2022/07/15 01:15:27;;;;;;;12.25;5.03;;;;;;;;;;5004297;28;20030;-73
2022/07/15 01:17:53;;;;;;;23.52;6.38;;;;;;;;;;5006256;28;20033;-73
2022/07/15 01:20:18;;;;;;;15.88;5.38;;;;;;;;;;5007666;28;20500;-73
2022/07/15 01:22:44;;;;;;;19.07;5.00;;;;;;;;;;5000188;28;20113;-73
2022/07/15 01:25:09;;;;;;;8.43;5.22;;;;;;;;;;5000073;28;20029;-72
2022/07/15 01:27:34;;;;;;;12.90;4.50;;;;;;;;;;5009166;28;20468;-73
2022/07/15 01:29:59;;;;;;;10.80;4.30;;;;;;;;;;4996008;28;20022;-73
2022/07/15 01:32:28;;;;;;;14.30;5.20;;;;;;;;;;4999268;28;20278;-73
2022/07/15 01:34:53;;;;;;;13.90;5.00;;;;;;;;;;5002065;28;20368;-73
2022/07/15 01:37:18;;;;;;;47.38;6.93;;;;;;;;;;5001662;28;20026;-73
2022/07/15 01:39:44;;;;;;;14.65;4.85;;;;;;;;;;4997056;28;20253;-73
2022/07/15 01:42:09;;;;;;;26.48;5.90;;;;;;;;;;4996919;28;20018;-73
2022/07/15 01:44:34;;;;;;;16.60;4.07;;;;;;;;;;4998924;28;20054;-73
2022/07/15 01:46:59;;;;;;;16.00;5.05;;;;;;;;;;5003987;28;20065;-73
2022/07/15 01:49:25;;;;;;;15.43;5.10;;;;;;;;;;4999526;28;20380;-73
2022/07/15 01:51:51;;;;;;;10.20;3.88;;;;;;;;;;4998915;28;20283;-73
2022/07/15 01:54:17;;;;;;;12.70;4.40;;;;;;;;;;5001923;28;20025;-73
2022/07/15 01:56:42;;;;;;;16.33;4.93;;;;;;;;;;5001734;28;20032;-72
2022/07/15 01:59:07;;;;;;;13.30;4.13;;;;;;;;;;4997891;28;20369;-73
2022/07/15 02:01:33;;;;;;;11.25;4.32;;;;;;;;;;4998653;28;20427;-73
2022/07/15 02:03:59;;;;;;;18.25;4.80;;;;;;;;;;5000367;28;20025;-73
2022/07/15 02:06:24;;;;;;;11.57;4.43;;;;;;;;;;5002569;28;20025;-73
2022/07/15 02:08:49;;;;;;;13.37;4.50;;;;;;;;;;5007458;28;20018;-73
2022/07/15 02:11:15;;;;;;;10.83;4.73;;;;;;;;;;5002894;28;20297;-72
2022/07/15 02:13:40;;;;;;;13.73;4.50;;;;;;;;;;5008823;28;20259;-72
2022/07/15 02:16:05;;;;;;;11.00;4.70;;;;;;;;;;5002565;28;20065;-73
2022/07/15 02:18:31;;;;;;;12.13;4.90;;;;;;;;;;5005875;28;20056;-73
2022/07/15 02:20:56;;;;;;;12.20;3.80;;;;;;;;;;5001026;28;20842;-72
2022/07/15 02:23:22;;;;;;;16.33;4.90;;;;;;;;;;5009194;28;20037;-72
2022/07/15 02:25:47;;;;;;;13.38;4.75;;;;;;;;;;5011481;28;20021;-72
2022/07/15 02:28:13;;;;;;;17.50;4.65;;;;;;;;;;5017628;28;20033;-72
2022/07/15 02:30:39;;;;;;;11.32;4.53;;;;;;;;;;5003984;28;20710;-72
2022/07/15 02:33:05;;;;;;;17.63;3.85;;;;;;;;;;5004434;28;20018;-73
2022/07/15 02:35:30;;;;;;;19.75;4.95;;;;;;;;;;5007140;28;20053;-73
2022/07/15 02:37:56;;;;;;;13.18;4.55;;;;;;;;;;5000589;28;20025;-73
2022/07/15 02:40:21;;;;;;;15.30;5.03;;;;;;;;;;5005232;28;20034;-73
2022/07/15 02:42:48;;;;;;;17.10;4.30;;;;;;;;;;5006428;28;20056;-73
2022/07/15 02:45:13;;;;;;;26.58;5.30;;;;;;;;;;5006429;28;20448;-72
2022/07/15 02:47:38;;;;;;;12.23;4.80;;;;;;;;;;5002135;28;20122;-73
2022/07/15 02:50:05;;;;;;;19.60;4.68;;;;;;;;;;5006257;28;20310;-73
2022/07/15 02:52:30;;;;;;;16.58;5.22;;;;;;;;;;5001816;28;20445;-73
2022/07/15 02:54:55;;;;;;;25.60;6.33;;;;;;;;;;5004474;28;20037;-73
2022/07/15 02:57:20;;;;;;;16.83;4.90;;;;;;;;;;4998177;28;20311;-73
2022/07/15 02:59:46;;;;;;;12.33;4.97;;;;;;;;;;4996723;28;20117;-73
2022/07/15 03:02:11;;;;;;;23.25;6.00;;;;;;;;;;5002598;28;20259;-73
2022/07/15 03:04:37;;;;;;;14.27;4.53;;;;;;;;;;5003707;28;20025;-73
2022/07/15 03:07:03;;;;;;;18.85;5.10;;;;;;;;;;4997704;28;20053;-73
2022/07/15 03:09:28;;;;;;;10.95;4.55;;;;;;;;;;5001695;28;20117;-73
2022/07/15 03:11:53;;;;;;;17.67;5.57;;;;;;;;;;5000488;28;20030;-73
2022/07/15 03:14:18;;;;;;;21.17;5.03;;;;;;;;;;5016150;28;20263;-73
2022/07/15 03:16:43;;;;;;;11.67;4.40;;;;;;;;;;4996853;28;20120;-74
2022/07/15 03:19:08;;;;;;;16.20;4.20;;;;;;;;;;5000292;28;20281;-73
2022/07/15 03:21:33;;;;;;;12.93;5.05;;;;;;;;;;5001540;28;20455;-73
2022/07/15 03:23:59;;;;;;;15.03;5.30;;;;;;;;;;5000573;28;20030;-73
2022/07/15 03:26:24;;;;;;;16.67;5.93;;;;;;;;;;5002262;28;20275;-74
2022/07/15 03:28:49;;;;;;;10.80;4.73;;;;;;;;;;4999278;28;22194;-73
2022/07/15 03:31:14;;;;;;;16.38;6.00;;;;;;;;;;4993970;28;20298;-73
2022/07/15 03:33:40;;;;;;;15.40;5.22;;;;;;;;;;4998234;28;20045;-73
2022/07/15 03:36:05;;;;;;;16.90;4.80;;;;;;;;;;4999476;28;20076;-73
2022/07/15 03:38:30;;;;;;;10.90;4.88;;;;;;;;;;5008320;28;20263;-73
2022/07/15 03:40:56;;;;;;;13.07;4.53;;;;;;;;;;5009096;28;20762;-73
2022/07/15 03:43:22;;;;;;;17.48;5.25;;;;;;;;;;5012529;28;20095;-73
2022/07/15 03:45:47;;;;;;;13.13;4.55;;;;;;;;;;5007810;28;20056;-72
2022/07/15 03:48:13;;;;;;;23.73;5.30;;;;;;;;;;5018469;28;20502;-72
2022/07/15 03:50:38;;;;;;;20.67;5.15;;;;;;;;;;5018799;28;20291;-73
2022/07/15 03:53:03;;;;;;;16.87;4.30;;;;;;;;;;4996426;28;20064;-73
2022/07/15 03:55:28;;;;;;;18.17;5.47;;;;;;;;;;5001219;28;20625;-73
2022/07/15 03:57:55;;;;;;;15.27;5.47;;;;;;;;;;5013273;28;20378;-73
2022/07/15 04:00:20;;;;;;;32.33;5.65;;;;;;;;;;5006181;28;20314;-73
2022/07/15 04:02:45;;;;;;;14.53;5.67;;;;;;;;;;4997699;28;20460;-72
2022/07/15 04:05:10;;;;;;;13.73;6.13;;;;;;;;;;5002546;28;20276;-72
2022/07/15 04:07:36;;;;;;;16.80;5.83;;;;;;;;;;4997277;28;20633;-73
2022/07/15 04:10:01;;;;;;;15.05;5.35;;;;;;;;;;5004795;28;20371;-72
2022/07/15 04:12:26;;;;;;;18.70;5.22;;;;;;;;;;4997584;28;20033;-72
2022/07/15 04:14:51;;;;;;;20.93;5.77;;;;;;;;;;5002903;28;20129;-72
2022/07/15 04:17:16;;;;;;;17.20;5.15;;;;;;;;;;4998543;28;20309;-72
2022/07/15 04:19:41;;;;;;;26.73;5.67;;;;;;;;;;5006432;28;20018;-73
2022/07/15 04:22:07;;;;;;;18.10;5.70;;;;;;;;;;5007307;28;20662;-72
2022/07/15 04:24:32;;;;;;;15.82;5.07;;;;;;;;;;5002343;28;20018;-72
2022/07/15 04:26:57;;;;;;;12.98;4.95;;;;;;;;;;5005502;28;20032;-72
2022/07/15 04:29:23;;;;;;;12.97;5.20;;;;;;;;;;5011692;28;20025;-72
2022/07/15 04:31:48;;;;;;;14.23;4.93;;;;;;;;;;5014154;28;20293;-72
2022/07/15 04:34:13;;;;;;;18.47;5.00;;;;;;;;;;5008684;28;20267;-72
2022/07/15 04:36:39;;;;;;;14.98;5.80;;;;;;;;;;4998722;28;20668;-72
2022/07/15 04:39:04;;;;;;;17.90;5.95;;;;;;;;;;5005523;28;20452;-72
2022/07/15 04:41:29;;;;;;;13.15;4.97;;;;;;;;;;5007964;28;20029;-72
2022/07/15 04:43:54;;;;;;;24.10;6.10;;;;;;;;;;5009586;28;20037;-72
2022/07/15 04:46:19;;;;;;;23.20;5.35;;;;;;;;;;4996441;28;20468;-72
2022/07/15 04:51:28;;;;;;;28.85;7.22;;;;;;;;;;5003675;28;20133;-72
2022/07/15 04:53:54;;;;;;;26.10;7.13;;;;;;;;;;5004105;28;20026;-72
2022/07/15 04:56:19;;;;;;;32.30;8.65;;;;;;;;;;5015169;28;20267;-72
2022/07/15 04:58:44;;;;;;;31.38;8.75;;;;;;;;;;5007495;28;20029;-72
2022/07/15 05:01:09;;;;;;;30.95;7.55;;;;;;;;;;5006745;28;20026;-72
2022/07/15 05:03:34;;;;;;;30.77;7.90;;;;;;;;;;4994485;28;20128;-72
2022/07/15 05:06:00;;;;;;;23.73;7.30;;;;;;;;;;4997839;28;20031;-72
2022/07/15 05:08:25;;;;;;;30.98;7.97;;;;;;;;;;4996599;28;20355;-72
2022/07/15 05:10:50;;;;;;;27.63;8.27;;;;;;;;;;4999283;28;20022;-72
2022/07/15 05:13:15;;;;;;;20.80;6.72;;;;;;;;;;5003854;28;20068;-72
2022/07/15 05:15:41;;;;;;;23.47;7.13;;;;;;;;;;4995070;28;20401;-72
2022/07/15 05:18:06;;;;;;;23.58;6.65;;;;;;;;;;4999024;28;20721;-72
2022/07/15 05:20:31;;;;;;;28.67;6.93;;;;;;;;;;4997899;28;20037;-73
2022/07/15 05:22:56;;;;;;;25.38;6.35;;;;;;;;;;5007248;28;20072;-73
2022/07/15 05:25:21;;;;;;;23.90;6.50;;;;;;;;;;4996215;28;20081;-72
2022/07/15 05:27:47;;;;;;;22.00;5.97;;;;;;;;;;4995130;28;20291;-72
2022/07/15 05:30:14;;;;;;;18.95;6.18;;;;;;;;;;4998606;28;20030;-72
2022/07/15 05:32:39;;;;;;;21.50;5.45;;;;;;;;;;5000167;28;20029;-72
2022/07/15 05:35:05;;;;;;;12.70;4.72;;;;;;;;;;4999028;28;20034;-72
2022/07/15 05:37:30;;;;;;;9.75;4.80;;;;;;;;;;4999659;28;20614;-72
2022/07/15 05:39:56;;;;;;;14.60;5.20;;;;;;;;;;5000308;28;20477;-72
2022/07/15 05:42:22;;;;;;;15.75;4.82;;;;;;;;;;5006144;28;20346;-72
2022/07/15 05:44:47;;;;;;;20.10;4.53;;;;;;;;;;5012202;28;20534;-74
2022/07/15 05:47:13;;;;;;;17.67;4.47;;;;;;;;;;5005338;28;20029;-73
2022/07/15 05:49:38;;;;;;;15.98;4.63;;;;;;;;;;5004685;28;20145;-73
2022/07/15 05:52:04;;;;;;;12.83;4.37;;;;;;;;;;5010331;28;20376;-73
2022/07/15 05:54:29;;;;;;;13.00;4.63;;;;;;;;;;5005138;28;20325;-73
2022/07/15 05:56:54;;;;;;;11.23;3.97;;;;;;;;;;5009456;28;20025;-73
2022/07/15 05:59:19;;;;;;;19.33;4.33;;;;;;;;;;5008425;28;20034;-73
2022/07/15 06:01:44;;;;;;;11.57;4.40;;;;;;;;;;5006834;28;20112;-72
2022/07/15 06:04:09;;;;;;;16.70;4.17;;;;;;;;;;5014125;28;20025;-72
2022/07/15 06:06:35;;;;;;;18.47;4.50;;;;;;;;;;5007703;28;20275;-72
2022/07/15 06:09:00;;;;;;;13.27;4.27;;;;;;;;;;5005828;28;20279;-72
2022/07/15 06:11:25;;;;;;;8.90;4.87;;;;;;;;;;4995179;28;20287;-73
2022/07/15 06:13:50;;;;;;;11.47;3.70;;;;;;;;;;5009046;28;20264;-73
2022/07/15 06:16:16;;;;;;;12.23;4.87;;;;;;;;;;5008925;28;20401;-75
2022/07/15 06:18:42;;;;;;;10.15;3.78;;;;;;;;;;5008405;28;20266;-76
2022/07/15 06:21:07;;;;;;;11.27;4.05;;;;;;;;;;5005152;28;20030;-75
2022/07/15 06:23:32;;;;;;;14.05;3.33;;;;;;;;;;5003194;28;20582;-75
2022/07/15 06:25:57;;;;;;;10.57;3.23;;;;;;;;;;4990062;28;20072;-75
2022/07/15 06:28:22;;;;;;;10.75;4.18;;;;;;;;;;5000053;28;20729;-75
2022/07/15 06:30:47;;;;;;;8.67;3.00;;;;;;;;;;5002949;28;20022;-74
2022/07/15 06:33:13;;;;;;;8.30;2.80;;;;;;;;;;5012759;28;20050;-75
2022/07/15 06:35:38;;;;;;;6.50;2.23;;;;;;;;;;5021683;28;20710;-76
2022/07/15 06:38:03;;;;;;;11.97;2.70;;;;;;;;;;5018164;28;20021;-76
2022/07/15 06:40:28;;;;;;;16.93;2.47;;;;;;;;;;5006743;28;20275;-73
2022/07/15 06:42:53;;;;;;;11.27;2.90;;;;;;;;;;5002961;28;20065;-74
2022/07/15 06:45:18;;;;;;;12.98;2.80;;;;;;;;;;4998160;28;20084;-77
2022/07/15 06:47:44;;;;;;;13.53;2.70;;;;;;;;;;5003128;28;20026;-75
2022/07/15 06:50:10;;;;;;;18.47;3.90;;;;;;;;;;4996167;28;20615;-72
2022/07/15 06:52:35;;;;;;;8.10;2.47;;;;;;;;;;5001237;28;20558;-74
2022/07/15 06:55:01;;;;;;;8.52;3.58;;;;;;;;;;5000964;28;20088;-74
2022/07/15 06:57:28;;;;;;;3.78;2.42;;;;;;;;;;5002567;28;20018;-73
2022/07/15 06:59:53;;;;;;;7.97;2.25;;;;;;;;;;4997218;28;20022;-75
2022/07/15 07:02:18;;;;;;;6.23;1.80;;;;;;;;;;5002064;28;20446;-74
2022/07/15 07:04:44;;;;;;;11.03;2.23;;;;;;;;;;5013854;28;21010;-74
2022/07/15 07:07:10;;;;;;;10.68;2.42;;;;;;;;;;5004240;28;20271;-79
2022/07/15 07:09:35;;;;;;;5.07;1.80;;;;;;;;;;5002967;28;20022;-74
2022/07/15 07:12:00;;;;;;;10.88;2.33;;;;;;;;;;5003293;28;20538;-74
2022/07/15 07:14:25;;;;;;;7.27;2.10;;;;;;;;;;5006394;28;20097;-73
2022/07/15 07:16:50;;;;;;;16.40;2.67;;;;;;;;;;5005458;28;20018;-73
2022/07/15 07:19:16;;;;;;;15.95;3.05;;;;;;;;;;5005552;28;21057;-75
2022/07/15 07:21:41;;;;;;;10.75;2.60;;;;;;;;;;4997402;28;20121;-71
2022/07/15 07:24:07;;;;;;;7.50;2.80;;;;;;;;;;5004152;28;20100;-74
2022/07/15 07:26:32;;;;;;;8.55;2.58;;;;;;;;;;5004525;28;20033;-73
2022/07/15 07:28:58;;;;;;;8.32;2.45;;;;;;;;;;5003624;28;20034;-73
2022/07/15 07:31:26;;;;;;;9.77;2.20;;;;;;;;;;5005703;28;20029;-72
2022/07/15 07:33:51;;;;;;;10.00;2.30;;;;;;;;;;5000615;28;20342;-70
2022/07/15 07:36:16;;;;;;;8.05;1.80;;;;;;;;;;5017889;28;20097;-72
2022/07/15 07:38:42;;;;;;;9.23;2.17;;;;;;;;;;5004073;28;20034;-73
2022/07/15 07:41:07;;;;;;;13.17;2.77;;;;;;;;;;5001273;28;20136;-73
2022/07/15 07:43:32;;;;;;;7.40;2.00;;;;;;;;;;4999014;28;20034;-73
2022/07/15 07:45:58;;;;;;;11.05;2.30;;;;;;;;;;5002022;28;20271;-73
2022/07/15 07:48:23;;;;;;;8.85;2.35;;;;;;;;;;5002453;28;20376;-73
2022/07/15 07:50:48;;;;;;;9.10;2.33;;;;;;;;;;5003838;28;20017;-73
2022/07/15 07:53:13;;;;;;;6.47;2.20;;;;;;;;;;5002828;28;20295;-73
2022/07/15 07:55:38;;;;;;;6.93;2.28;;;;;;;;;;5002697;28;20030;-73
2022/07/15 07:58:03;;;;;;;10.25;2.10;;;;;;;;;;4999913;28;20193;-73
2022/07/15 08:00:29;;;;;;;6.70;2.10;;;;;;;;;;5002303;28;20061;-74
2022/07/15 08:02:55;;;;;;;10.98;1.98;;;;;;;;;;4996494;28;20536;-73
2022/07/15 08:05:20;;;;;;;6.43;2.30;;;;;;;;;;4993743;28;20516;-73
2022/07/15 08:07:46;;;;;;;9.82;2.58;;;;;;;;;;4998045;28;20029;-72
2022/07/15 08:10:12;;;;;;;13.32;2.17;;;;;;;;;;5005971;28;20036;-73
2022/07/15 08:12:37;;;;;;;7.15;2.28;;;;;;;;;;5008394;28;20022;-74
2022/07/15 08:15:07;;;;;;;6.57;1.90;;;;;;;;;;4999251;28;20033;-72
2022/07/15 08:17:32;;;;;;;9.38;2.10;;;;;;;;;;5000275;28;20018;-72
2022/07/15 08:19:57;;;;;;;8.93;1.90;;;;;;;;;;4996109;28;20031;-72
2022/07/15 08:22:22;;;;;;;9.50;1.80;;;;;;;;;;5001184;28;20267;-73
2022/07/15 08:24:49;;;;;;;5.82;1.60;;;;;;;;;;4996656;28;20299;-72
2022/07/15 08:27:14;;;;;;;7.18;2.00;;;;;;;;;;5001283;28;20342;-72
2022/07/15 08:29:39;;;;;;;6.60;2.00;;;;;;;;;;4993727;28;20021;-72
2022/07/15 08:32:05;;;;;;;13.23;1.73;;;;;;;;;;4999019;28;20026;-72
2022/07/15 08:34:30;;;;;;;6.53;2.03;;;;;;;;;;5000417;28;20106;-72
2022/07/15 08:36:55;;;;;;;9.70;1.63;;;;;;;;;;5003920;28;20347;-72
2022/07/15 08:39:20;;;;;;;15.40;2.10;;;;;;;;;;4997905;28;20075;-72
2022/07/15 08:41:46;;;;;;;5.10;1.87;;;;;;;;;;4999226;28;20297;-72
2022/07/15 08:44:11;;;;;;;9.75;2.13;;;;;;;;;;4994488;28;20388;-71
2022/07/15 08:46:36;;;;;;;12.15;2.55;;;;;;;;;;4995537;28;20029;-72
2022/07/15 08:49:07;;;;;;;7.93;2.08;;;;;;;;;;5000427;28;20037;-72
2022/07/15 08:51:36;;;;;;;7.32;1.70;;;;;;;;;;5000094;28;20068;-72
2022/07/15 08:54:01;;;;;;;8.30;1.65;;;;;;;;;;4994687;28;20109;-71
2022/07/15 08:56:27;;;;;;;10.18;1.75;;;;;;;;;;4996613;28;20034;-72
2022/07/15 08:58:52;;;;;;;12.38;1.92;;;;;;;;;;5000851;28;20026;-73
2022/07/15 09:01:17;;;;;;;6.13;1.70;;;;;;;;;;5000426;28;20472;-71
2022/07/15 09:03:43;;;;;;;8.33;2.00;;;;;;;;;;4996422;28;20081;-71
2022/07/15 09:06:08;;;;;;;5.23;1.50;;;;;;;;;;5002712;28;20064;-72
2022/07/15 09:08:34;;;;;;;7.53;1.73;;;;;;;;;;5003562;28;20285;-73
2022/07/15 09:11:00;;;;;;;10.93;2.08;;;;;;;;;;5002188;28;20031;-72
2022/07/15 09:13:38;;;;;;;6.65;1.48;;;;;;;;;;4998569;28;20021;-71
2022/07/15 09:16:04;;;;;;;6.13;1.65;;;;;;;;;;4999590;28;20080;-71
2022/07/15 09:18:33;;;;;;;11.43;1.83;;;;;;;;;;5003259;28;20379;-71
2022/07/15 09:20:58;;;;;;;5.65;1.95;;;;;;;;;;5003030;28;20022;-71
2022/07/15 09:23:31;;;;;;;14.30;2.27;;;;;;;;;;5001011;28;20030;-72
2022/07/15 09:25:58;;;;;;;11.27;1.75;;;;;;;;;;5001842;28;20382;-72
2022/07/15 09:28:34;;;;;;;9.18;1.65;;;;;;;;;;4998975;28;20033;-71
2022/07/15 09:33:44;;;;;;;;;;;;;;;;;;4998475;28;20032;-71
2022/07/15 09:36:11;;;;;;;7.50;2.00;;;;;;;;;;5004431;28;19913;-72
2022/07/15 09:38:40;;;;;;;8.30;1.92;;;;;;;;;;5000445;28;20022;-71
2022/07/15 09:41:05;;;;;;;7.60;1.52;;;;;;;;;;5001618;28;20017;-71
2022/07/15 09:43:41;;;;;;;17.98;2.00;;;;;;;;;;5001369;28;20079;-72
2022/07/15 09:46:06;;;;;;;10.25;1.58;;;;;;;;;;5000624;28;20065;-73
2022/07/15 09:48:38;;;;;;;10.60;2.25;;;;;;;;;;5011597;28;20120;-72
2022/07/15 09:51:03;;;;;;;13.35;1.90;;;;;;;;;;5003158;28;20032;-71
2022/07/15 09:53:29;;;;;;;8.05;1.65;;;;;;;;;;5003926;28;21653;-71
2022/07/15 09:55:55;;;;;;;7.95;1.50;;;;;;;;;;5003884;28;20106;-72
2022/07/15 09:58:21;;;;;;;5.57;1.80;;;;;;;;;;4996949;28;20022;-71
2022/07/15 10:00:46;;;;;;;11.70;1.88;;;;;;;;;;5005532;28;20156;-72
2022/07/15 10:03:11;;;;;;;3.27;1.50;;;;;;;;;;5001921;28;20232;-70
2022/07/15 10:05:38;;;;;;;5.23;2.00;;;;;;;;;;4998667;28;20319;-72
2022/07/15 10:08:04;;;;;;;4.13;1.10;;;;;;;;;;5001001;28;20271;-71
2022/07/15 10:10:30;;;;;;;4.30;0.90;;;;;;;;;;4996339;28;20033;-72
2022/07/15 10:13:09;;;;;;;4.72;1.20;;;;;;;;;;5003939;28;20453;-72
2022/07/15 10:15:54;;;;;;;6.38;1.65;;;;;;;;;;4997146;28;20418;-72
2022/07/15 10:18:37;;;;;;;3.72;1.50;;;;;;;;;;5002395;28;20117;-71
2022/07/15 10:21:03;;;;;;;7.15;1.42;;;;;;;;;;4995642;28;20101;-71
2022/07/15 10:23:34;;;;;;;6.93;1.70;;;;;;;;;;4999549;28;20106;-71
2022/07/15 10:26:18;;;;;;;4.88;1.45;;;;;;;;;;5002634;28;20032;-71
2022/07/15 10:28:43;;;;;;;;;;;;;;;;;;5004399;28;20484;-73
2022/07/15 10:31:13;;;;;;;6.47;1.40;;;;;;;;;;5015885;28;19929;-72
2022/07/15 10:33:39;;;;;;;2.95;1.15;;;;;;;;;;5003598;28;20649;-72
2022/07/15 10:36:04;;;;;;;5.07;1.30;;;;;;;;;;5000511;28;20465;-71
2022/07/15 10:38:37;;;;;;;7.47;1.20;;;;;;;;;;5008589;28;20277;-76
2022/07/15 10:41:06;;;;;;;8.55;2.00;;;;;;;;;;4998966;28;20376;-72
2022/07/15 10:43:38;;;;;;;4.53;1.48;;;;;;;;;;5001516;28;20109;-72
2022/07/15 10:46:04;;;;;;;4.07;1.23;;;;;;;;;;4993037;28;20030;-72
2022/07/15 10:48:30;;;;;;;2.50;1.30;;;;;;;;;;4996486;28;20034;-72
2022/07/15 10:50:56;;;;;;;10.13;1.60;;;;;;;;;;5000699;28;20022;-76
2022/07/15 10:53:22;;;;;;;7.25;1.30;;;;;;;;;;5005052;28;20437;-74
2022/07/15 10:55:47;;;;;;;2.03;1.40;;;;;;;;;;5003260;28;20040;-77
2022/07/15 10:58:14;;;;;;;6.90;1.33;;;;;;;;;;5008060;28;20400;-73
2022/07/15 11:00:40;;;;;;;8.02;1.88;;;;;;;;;;4999414;28;20041;-75
2022/07/15 11:03:08;;;;;;;6.65;1.80;;;;;;;;;;5001673;28;20022;-76
2022/07/15 11:05:33;;;;;;;7.35;2.60;;;;;;;;;;5002612;28;20026;-73
2022/07/15 11:07:58;;;;;;;7.95;1.80;;;;;;;;;;5005788;28;20095;-72
2022/07/15 11:10:24;;;;;;;5.00;1.87;;;;;;;;;;5000279;28;20033;-71
2022/07/15 11:12:49;;;;;;;10.70;2.05;;;;;;;;;;5005999;28;20096;-72
2022/07/15 11:15:23;;;;;;;6.60;1.77;;;;;;;;;;5000626;28;20033;-70
2022/07/15 11:17:49;;;;;;;;;;;;;;;;;;4998380;28;20036;-70
2022/07/15 11:20:16;;;;;;;10.80;1.98;;;;;;;;;;5005471;28;19909;-70
2022/07/15 11:22:43;;;;;;;7.15;2.00;;;;;;;;;;5010086;28;20037;-70
2022/07/15 11:25:23;;;;;;;10.73;2.63;;;;;;;;;;5000699;28;20037;-70
2022/07/15 11:28:00;;;;;;;8.68;2.22;;;;;;;;;;5007563;28;20655;-70
2022/07/15 11:30:25;;;;;;;7.53;2.15;;;;;;;;;;5002899;28;20109;-70
2022/07/15 11:32:54;;;;;;;4.32;2.28;;;;;;;;;;5003550;28;20373;-70
2022/07/15 11:35:19;;;;;;;8.23;2.80;;;;;;;;;;5001325;28;20026;-70
2022/07/15 11:37:44;;;;;;;7.90;2.30;;;;;;;;;;5005058;28;20028;-70
2022/07/15 11:45:41;;;;;;;10.02;2.70;;;;;;;;;;4993086;28;20352;-70
2022/07/15 11:48:07;;;;;;;8.82;2.65;;;;;;;;;;4992944;28;20026;-70
2022/07/15 11:50:33;;;;;;;10.73;2.93;;;;;;;;;;4997425;28;20026;-71
2022/07/15 11:52:58;;;;;;;5.38;2.35;;;;;;;;;;4995772;28;20113;-72
2022/07/15 11:55:24;;;;;;;12.88;2.47;;;;;;;;;;4993959;28;20088;-70
2022/07/15 11:57:51;;;;;;;11.48;2.53;;;;;;;;;;5000812;28;20479;-71
2022/07/15 12:00:16;;;;;;;10.07;2.15;;;;;;;;;;5006739;28;20060;-71
2022/07/15 12:02:41;;;;;;;6.30;2.20;;;;;;;;;;5001095;28;20022;-71
2022/07/15 12:05:07;;;;;;;8.27;2.15;;;;;;;;;;5001455;28;20460;-71
2022/07/15 12:07:39;;;;;;;8.50;1.92;;;;;;;;;;5003868;28;20120;-71
2022/07/15 12:10:05;;;;;;;8.90;1.92;;;;;;;;;;4994534;28;20044;-71
2022/07/15 12:12:30;;;;;;;5.35;2.08;;;;;;;;;;5002596;28;20030;-70
2022/07/15 12:14:55;;;;;;;5.00;2.13;;;;;;;;;;4993972;28;20022;-71
2022/07/15 12:17:20;;;;;;;11.25;2.78;;;;;;;;;;5002459;28;20366;-72
2022/07/15 12:19:50;;;;;;;7.87;2.37;;;;;;;;;;4996857;28;20022;-74
2022/07/15 12:22:15;;;;;;;9.20;2.47;;;;;;;;;;4998188;28;20406;-73
2022/07/15 12:24:44;;;;;;;8.85;2.90;;;;;;;;;;4997952;28;22805;-72
2022/07/15 12:27:10;;;;;;;9.30;3.20;;;;;;;;;;4996142;28;21689;-72
2022/07/15 12:29:36;;;;;;;11.73;2.40;;;;;;;;;;4998251;28;20041;-69
2022/07/15 12:32:03;;;;;;;16.13;2.53;;;;;;;;;;5001468;28;20025;-74
2022/07/15 12:34:46;;;;;;;7.05;2.22;;;;;;;;;;4996459;28;20507;-71
2022/07/15 12:37:16;;;;;;;8.60;1.95;;;;;;;;;;4995939;28;20113;-73
2022/07/15 12:39:58;;;;;;;6.10;2.40;;;;;;;;;;5000365;28;20053;-72
2022/07/15 12:42:25;;;;;;;1729.95;161.15;;;;;;;;;;4994273;28;20040;-73
2022/07/15 12:45:09;;;;;;;48.00;4.32;;;;;;;;;;4994819;28;20367;-74
2022/07/15 12:47:34;;;;;;;13.13;2.83;;;;;;;;;;4998527;28;20040;-76
2022/07/15 12:50:00;;;;;;;10.75;2.28;;;;;;;;;;4998288;28;20034;-73
2022/07/15 12:52:25;;;;;;;8.38;2.10;;;;;;;;;;4998952;28;20064;-73
2022/07/15 12:54:54;;;;;;;70.57;5.53;;;;;;;;;;4996954;28;20031;-73
2022/07/15 12:57:20;;;;;;;6.47;2.58;;;;;;;;;;4996258;28;20028;-72
2022/07/15 12:59:50;;;;;;;53.80;4.97;;;;;;;;;;5001447;28;20117;-73
2022/07/15 13:02:15;;;;;;;10.15;2.42;;;;;;;;;;5000292;28;20037;-74
2022/07/15 13:04:41;;;;;;;547.42;52.22;;;;;;;;;;5000678;28;20399;-75
2022/07/15 13:07:06;;;;;;;1999.90;538.70;;;;;;;;;;5003555;28;20049;-75
2022/07/15 13:09:31;;;;;;;590.87;52.60;;;;;;;;;;5003130;28;20360;-71
2022/07/15 13:11:57;;;;;;;11.77;2.43;;;;;;;;;;4999041;28;20026;-72
2022/07/15 13:14:22;;;;;;;160.88;8.68;;;;;;;;;;5000909;28;20072;-74
2022/07/15 13:16:47;;;;;;;30.70;2.80;;;;;;;;;;4996944;28;20041;-72
2022/07/15 13:19:12;;;;;;;12.15;2.28;;;;;;;;;;4998488;28;20132;-73
2022/07/15 13:21:37;;;;;;;18.80;2.43;;;;;;;;;;4999979;28;20029;-74
2022/07/15 13:24:02;;;;;;;8.10;2.43;;;;;;;;;;4994054;28;20840;-73
2022/07/15 13:26:28;;;;;;;7.47;1.90;;;;;;;;;;4999766;28;20033;-70
2022/07/15 13:28:53;;;;;;;1065.67;79.23;;;;;;;;;;4999433;28;20476;-69
2022/07/15 13:31:18;;;;;;;37.22;3.08;;;;;;;;;;4997771;28;20033;-67
2022/07/15 13:33:43;;;;;;;33.05;3.08;;;;;;;;;;4996712;28;20464;-68
2022/07/15 13:36:08;;;;;;;11.70;2.60;;;;;;;;;;4997741;28;20033;-70
2022/07/15 13:38:33;;;;;;;7.10;2.03;;;;;;;;;;4996299;28;20483;-71
2022/07/15 13:40:58;;;;;;;14.20;2.20;;;;;;;;;;5000772;28;20037;-68
2022/07/15 13:43:24;;;;;;;7.65;2.33;;;;;;;;;;4996267;28;20157;-70
2022/07/15 13:45:49;;;;;;;7.23;1.97;;;;;;;;;;4995973;28;20026;-66
2022/07/15 13:48:14;;;;;;;12.77;2.30;;;;;;;;;;5001984;28;20472;-68
2022/07/15 13:53:23;;;;;;;;;;;;;;;;;;4998025;28;21138;-68
2022/07/15 13:55:48;;;;;;;10.43;2.20;;;;;;;;;;5004327;28;19952;-67
2022/07/15 13:58:13;;;;;;;8.73;2.22;;;;;;;;;;4996213;28;20034;-68
2022/07/15 14:00:41;;;;;;;10.70;2.58;;;;;;;;;;5002211;28;20597;-68
2022/07/15 14:03:08;;;;;;;10.30;2.58;;;;;;;;;;5008668;28;20051;-68
2022/07/15 14:05:33;;;;;;;7.85;2.33;;;;;;;;;;5001580;28;20084;-67
2022/07/15 14:07:58;;;;;;;7.07;2.10;;;;;;;;;;5001179;28;20067;-67
2022/07/15 14:10:23;;;;;;;12.77;3.97;;;;;;;;;;5002074;28;20050;-67
2022/07/15 14:12:49;;;;;;;9.00;2.30;;;;;;;;;;4998200;28;20103;-68
2022/07/15 14:15:14;;;;;;;8.93;2.40;;;;;;;;;;5003033;28;20279;-67
2022/07/15 14:17:39;;;;;;;10.73;2.80;;;;;;;;;;5009249;28;20105;-67
2022/07/15 14:20:05;;;;;;;6.83;2.90;;;;;;;;;;5007973;28;20278;-67
2022/07/15 14:22:31;;;;;;;10.45;3.25;;;;;;;;;;5008658;28;20637;-67
2022/07/15 14:24:57;;;;;;;9.88;2.80;;;;;;;;;;5005821;28;20029;-68
2022/07/15 14:27:22;;;;;;;15.10;3.03;;;;;;;;;;5013514;28;20026;-68
2022/07/15 14:29:47;;;;;;;8.90;2.20;;;;;;;;;;5009102;28;20029;-68
2022/07/15 14:32:12;;;;;;;17.70;3.42;;;;;;;;;;5004496;28;20471;-68
2022/07/15 14:34:38;;;;;;;16.00;3.70;;;;;;;;;;5000480;28;20045;-68
2022/07/15 14:37:03;;;;;;;7.15;2.53;;;;;;;;;;5004532;28;20127;-71
2022/07/15 14:39:28;;;;;;;27.77;3.97;;;;;;;;;;5004275;28;20112;-69
2022/07/15 14:41:53;;;;;;;12.40;2.80;;;;;;;;;;5001107;28;20034;-70
2022/07/15 14:44:18;;;;;;;12.57;3.70;;;;;;;;;;4999785;28;20290;-69
2022/07/15 14:46:43;;;;;;;11.13;3.47;;;;;;;;;;5004827;28;20073;-69